• Join FlightAware (Why Join?)
  • Login
  • US Flag 
04:17AM EST


 

Airport Tracker/Info


-or-


 

Live Flight TrackerFlight Track Log ✈ N96CB ✈ 23-Jul-2014 ✈ KPMP - KMCN

Flight Track Log - Related Links

Times and Time Zones

All times are in EDT time to prevent confusion due to time zone crossing. See the N96CB flight status page for this flight to view local times or setup timezone preferences in your user account.

Time Position Orientation Groundspeed Altitude Reporting Facility
EDT Latitude Longitude Course Direction KTS MPH feet Rate Location/Type
09:41AM 26.2536 -80.1050 273° West 102 117 1,000  Level Miami Center
09:41AM 26.2544 -80.1239 273° West 97 112 1,400 646 Climbing Miami Center
09:42AM 26.2550 -80.1378 273° West 96 110 1,700 689 Climbing Miami Center
09:42AM 26.2525 -80.1561 261° West 103 119 2,100 677 Climbing Miami Center
09:43AM 26.2531 -80.1694 273° West 100 115 2,400 689 Climbing Miami Center
09:43AM 26.2528 -80.1864 269° West 99 114 2,800 677 Climbing Miami Center
09:44AM 26.2536 -80.2003 274° West 100 115 3,100 689 Climbing Miami Center
09:44AM 26.2528 -80.2189 267° West 101 116 3,500 677 Climbing Miami Center
09:45AM 26.2542 -80.2314 277° West 100 115 3,800 689 Climbing Miami Center
09:45AM 26.2569 -80.2517 279° West 105 121 4,200 590 Climbing Miami Center
09:46AM 26.2603 -80.2653 285° West 101 116 4,400 787 Climbing Miami Center
09:46AM 26.2633 -80.2825 281° West 101 116 5,000 774 Climbing Miami Center
09:47AM 26.2678 -80.2975 288° West 101 116 5,200 537 Climbing Miami Center
09:47AM 26.2761 -80.3136 300° West 109 125 5,600 581 Climbing Miami Center
09:48AM 26.2825 -80.3256 301° West 103 119 5,800 689 Climbing Miami Center
09:48AM 26.2911 -80.3428 299° West 103 119 6,300 689 Climbing Miami Center
09:49AM 26.2981 -80.3517 311° West 102 117 6,500 689 Climbing Miami Center
09:49AM 26.3083 -80.3672 306° West 103 119 7,000 581 Climbing Miami Center
09:50AM 26.3175 -80.3800 309° West 106 122 7,100 333 Climbing Miami Center
09:51AM 26.3278 -80.4111 290° West 107 123 7,500 292 Climbing Miami Center
09:53AM 26.3283 -80.4933 270° West 150 173 8,000 163 Climbing Miami Center
09:54AM 26.3286 -80.5403 270° West 151 174 8,000  Level Miami Center
09:55AM 26.3306 -80.5914 272° West 151 174 8,000  Level Miami Center
09:56AM 26.3364 -80.6394 278° West 154 177 8,000  Level Miami Center
09:57AM 26.3575 -80.6806 300° West 160 184 8,000  Level Miami Center
09:58AM 26.4031 -80.7075 332° Northwest 168 193 8,000  Level Miami Center
09:59AM 26.4431 -80.7328 330° Northwest 167 192 8,000  Level Miami Center
10:00AM 26.4806 -80.7628 324° Northwest 166 191 8,000 -49 Level Miami Center
10:01AM 26.5208 -80.7914 328° Northwest 167 192 7,900 -49 Descending Miami Center
10:02AM 26.5631 -80.8217 327° Northwest 169 194 7,900  Level Miami Center
10:03AM 26.6006 -80.8486 327° Northwest 168 193 7,900  Level Miami Center
10:04AM 26.6425 -80.8769 329° Northwest 167 192 7,900  Level Miami Center
10:05AM 26.6825 -80.9083 325° Northwest 167 192 7,900  Level Miami Center
10:06AM 26.7214 -80.9397 324° Northwest 166 191 7,900  Level Miami Center
10:07AM 26.7594 -80.9733 322° Northwest 167 192 7,900  Level Miami Center
10:08AM 26.7956 -81.0039 323° Northwest 167 192 7,900  Level Miami Center
10:09AM 26.8344 -81.0361 324° Northwest 167 192 7,900  Level Miami Center
10:10AM 26.8719 -81.0678 323° Northwest 166 191 7,900  Level Miami Center
10:11AM 26.9114 -81.1014 323° Northwest 165 190 7,900  Level Miami Center
10:12AM 26.9478 -81.1322 323° Northwest 166 191 7,900  Level Miami Center
10:13AM 26.9842 -81.1619 324° Northwest 164 189 7,900  Level Miami Center
10:14AM 27.0219 -81.1953 322° Northwest 163 188 7,900 49 Level Miami Center
10:16AM 27.0614 -81.2267 325° Northwest 164 189 8,000 49 Climbing Miami Center
10:17AM 27.0950 -81.2569 321° Northwest 163 188 8,000  Level Miami Center
10:18AM 27.1322 -81.2886 323° Northwest 163 188 8,000  Level Miami Center
10:19AM 27.1694 -81.3194 324° Northwest 161 185 8,000 49 Level Miami Center
10:20AM 27.2075 -81.3500 324° Northwest 161 185 8,100  Climbing Miami Center
10:21AM 27.2417 -81.3800 322° Northwest 162 186 8,000 -49 Descending Miami Center
10:22AM 27.2769 -81.4097 323° Northwest 161 185 8,000 -49 Level Miami Center
10:23AM 27.3125 -81.4389 324° Northwest 161 185 7,900 -48 Descending Miami Center
10:24AM 27.3483 -81.4694 323° Northwest 160 184 7,900  Level Miami Center
10:25AM 27.3828 -81.4989 323° Northwest 159 183 7,900  Level Miami Center
10:26AM 27.4244 -81.5344 323° Northwest 158 182 7,900  Level Miami Center
10:27AM 27.4600 -81.5633 324° Northwest 158 182 7,900  Level Miami Center
10:28AM 27.4953 -81.5936 323° Northwest 158 182 7,900  Level Miami Center
10:29AM 27.5294 -81.6239 322° Northwest 158 182 7,900 49 Level Miami Center
10:30AM 27.5642 -81.6522 324° Northwest 157 181 8,000 49 Climbing Miami Center
10:31AM 27.5989 -81.6825 322° Northwest 157 181 8,000 -48 Level Miami Center
10:32AM 27.6339 -81.7122 323° Northwest 157 181 7,900 -49 Descending Miami Center
10:33AM 27.6758 -81.7472 324° Northwest 157 181 7,900  Level Miami Center
10:34AM 27.7108 -81.7769 323° Northwest 157 181 7,900  Level Miami Center
10:35AM 27.7453 -81.8067 323° Northwest 157 181 7,900  Level Miami Center
10:36AM 27.7800 -81.8358 323° Northwest 157 181 7,900 49 Level Miami Center
10:37AM 27.8147 -81.8656 323° Northwest 157 181 8,000 49 Climbing Miami Center
10:38AM 27.8569 -81.9011 323° Northwest 157 181 8,000  Level Miami Center
10:39AM 27.8833 -81.9333 313° West 154 177 8,000  Level Tampa TRACON
10:40AM 27.9167 -81.9500 336° Northwest 156 180 8,000  Level Tampa TRACON
10:41AM 27.9500 -81.9833 319° Northwest 157 181 8,000  Level Tampa TRACON
10:42AM 27.9833 -82.0000 336° Northwest 158 182 8,000  Level Tampa TRACON
10:43AM 28.0167 -82.0333 319° Northwest 158 182 8,000  Level Tampa TRACON
10:44AM 28.0500 -82.0667 319° Northwest 160 184 8,000  Level Tampa TRACON
10:45AM 28.0833 -82.0833 336° Northwest 158 182 8,000  Level Tampa TRACON
10:46AM 28.1333 -82.1000 344° North 158 182 8,000  Level Tampa TRACON
10:47AM 28.1833 -82.1333 330° Northwest 158 182 8,000  Level Tampa TRACON
10:48AM 28.2167 -82.1667 319° Northwest 158 182 8,000  Level Tampa TRACON
10:49AM 28.2500 -82.1833 336° Northwest 158 182 8,000  Level Tampa TRACON
10:50AM 28.2833 -82.2000 336° Northwest 155 178 8,000  Level Tampa TRACON
10:51AM 28.3333 -82.2333 330° Northwest 155 178 8,000  Level Tampa TRACON
10:52AM 28.3500 -82.2500 319° Northwest 156 180 8,000  Level Tampa TRACON
10:53AM 28.4000 -82.2667 344° North 155 178 8,000  Level Tampa TRACON
10:54AM 28.4333 -82.3000 319° Northwest 155 178 8,000  Level Tampa TRACON
10:55AM 28.4667 -82.3167 336° Northwest 154 177 8,000 -41 Level Tampa TRACON
10:56AM 28.5267 -82.3608 327° Northwest 155 178 7,900 -40 Descending Jacksonville Center
10:57AM 28.5600 -82.3797 334° Northwest 154 177 7,900  Level Jacksonville Center
10:58AM 28.6019 -82.4078 330° Northwest 154 177 7,900  Level Jacksonville Center
10:59AM 28.6353 -82.4267 334° Northwest 155 178 7,900  Level Jacksonville Center
11:00AM 28.6792 -82.4572 329° Northwest 156 180 7,900  Level Jacksonville Center
11:01AM 28.7169 -82.4831 329° Northwest 156 180 7,900 47 Level Jacksonville Center
11:02AM 28.7586 -82.5089 331° Northwest 153 176 8,000  Climbing Jacksonville Center
11:03AM 28.7964 -82.5325 331° Northwest 154 177 7,900 -49 Descending Jacksonville Center
11:04AM 28.8339 -82.5561 331° Northwest 157 181 7,900  Level Jacksonville Center
11:05AM 28.8694 -82.5819 328° Northwest 159 183 7,900  Level Jacksonville Center
11:06AM 28.9072 -82.6033 334° Northwest 157 181 7,900  Level Jacksonville Center
11:07AM 28.9364 -82.6222 330° Northwest 157 181 7,900  Level Jacksonville Center
11:07AM 28.9489 -82.6317 327° Northwest 157 181 7,900  Level Jacksonville Center
11:08AM 28.9761 -82.6458 336° Northwest 157 181 7,900  Level Jacksonville Center
11:09AM 29.0136 -82.6694 331° Northwest 165 190 7,900  Level Jacksonville Center
11:10AM 29.0492 -82.6931 330° Northwest 165 190 7,900  Level Jacksonville Center
11:11AM 29.0889 -82.7192 330° Northwest 160 184 7,900  Level Jacksonville Center
11:12AM 29.1267 -82.7428 331° Northwest 160 184 7,900  Level Jacksonville Center
11:13AM 29.1683 -82.7617 338° Northwest 160 184 7,900  Level Jacksonville Center
11:14AM 29.2081 -82.7808 337° Northwest 155 178 7,900  Level Jacksonville Center
11:15AM 29.2478 -82.8022 335° Northwest 155 178 7,900  Level Jacksonville Center
11:16AM 29.2894 -82.8211 338° Northwest 155 178 7,900  Level Jacksonville Center
11:17AM 29.3250 -82.8472 327° Northwest 155 178 7,900  Level Jacksonville Center
11:18AM 29.3625 -82.8736 328° Northwest 155 178 7,900  Level Jacksonville Center
11:19AM 29.3981 -82.9022 325° Northwest 155 178 7,900  Level Jacksonville Center
11:20AM 29.4336 -82.9258 330° Northwest 155 178 7,900 50 Level Jacksonville Center
11:21AM 29.4731 -82.9522 330° Northwest 150 173 8,000  Climbing Jacksonville Center
11:22AM 29.5150 -82.9689 341° North 162 186 7,900 -50 Descending Jacksonville Center
11:23AM 29.5567 -82.9906 336° Northwest 150 173 7,900  Level Jacksonville Center
11:24AM 29.5942 -83.0097 336° Northwest 155 178 7,900  Level Jacksonville Center
11:25AM 29.6358 -83.0289 338° Northwest 160 184 7,900  Level Jacksonville Center
11:26AM 29.6736 -83.0503 334° Northwest 149 171 7,900  Level Jacksonville Center
11:27AM 29.7172 -83.0647 344° North 161 185 7,900  Level Jacksonville Center
11:28AM 29.7528 -83.0839 335° Northwest 156 180 7,900 50 Level Jacksonville Center
11:29AM 29.7944 -83.1008 341° North 151 174 8,000 50 Climbing Jacksonville Center
11:30AM 29.8383 -83.1033 357° North 151 174 8,000  Level Jacksonville Center
11:31AM 29.8842 -83.1058 357° North 151 174 8,000  Level Jacksonville Center
11:32AM 29.9281 -83.1106 355° North 156 180 8,000  Level Jacksonville Center
11:33AM 29.9697 -83.1131 357° North 156 180 8,000  Level Jacksonville Center
11:34AM 30.0158 -83.1206 352° North 156 180 8,000  Level Jacksonville Center
11:35AM 30.0597 -83.1303 349° North 156 180 8,000  Level Jacksonville Center
11:36AM 30.1033 -83.1397 349° North 161 185 8,000  Level Jacksonville Center
11:37AM 30.1472 -83.1494 349° North 161 185 8,000  Level Jacksonville Center
11:38AM 30.1931 -83.1569 352° North 161 185 8,000  Level Jacksonville Center
11:39AM 30.2369 -83.1642 352° North 161 185 8,000  Level Jacksonville Center
11:40AM 30.2808 -83.1717 352° North 161 185 8,000  Level Jacksonville Center
11:41AM 30.3247 -83.1814 349° North 161 185 8,000  Level Jacksonville Center
11:41AM 30.3414 -83.1886 339° North 160 184 8,000  Level Jacksonville Center
11:42AM 30.3686 -83.1911 355° North 161 185 8,000  Level Jacksonville Center
11:43AM 30.4103 -83.2008 349° North 159 183 8,000  Level Jacksonville Center
11:44AM 30.4561 -83.2058 355° North 161 185 8,000  Level Jacksonville Center
11:45AM 30.4978 -83.2181 346° North 161 185 8,000  Level Jacksonville Center
11:46AM 30.5439 -83.2256 352° North 161 185 8,000  Level Jacksonville Center
11:47AM 30.5917 -83.2353 350° North 160 184 8,000  Level Jacksonville Center
11:48AM 30.6314 -83.2403 354° North 161 185 8,000  Level Jacksonville Center
11:49AM 30.6753 -83.2500 349° North 161 185 8,000  Level Jacksonville Center
11:50AM 30.7192 -83.2575 352° North 161 185 8,000  Level Jacksonville Center
11:51AM 30.7650 -83.2672 350° North 161 185 8,000  Level Jacksonville Center
11:52AM 30.8131 -83.2772 350° North 161 185 8,000  Level Jacksonville Center
11:53AM 30.8547 -83.2869 349° North 161 185 8,000  Level Jacksonville Center
11:54AM 30.9028 -83.2944 352° North 159 183 8,000  Level Jacksonville Center
11:55AM 30.9444 -83.3044 348° North 161 185 8,000  Level Jacksonville Center
11:56AM 30.9903 -83.3094 355° North 162 186 8,000  Level Jacksonville Center
11:57AM 31.0342 -83.3192 349° North 162 186 8,000  Level Jacksonville Center
11:58AM 31.0800 -83.3267 352° North 160 184 8,000  Level Jacksonville Center
11:59AM 31.1239 -83.3367 349° North 161 185 8,000  Level Jacksonville Center
12:00PM 31.1719 -83.3442 352° North 164 189 8,000  Level Jacksonville Center
12:01PM 31.2158 -83.3542 349° North 163 188 8,000  Level Jacksonville Center
12:02PM 31.2594 -83.3617 352° North 164 189 8,000  Level Jacksonville Center
12:03PM 31.3053 -83.3717 349° North 165 190 8,000 -48 Level Jacksonville Center
12:04PM 31.3617 -83.3817 351° North 163 188 7,900  Descending Jacksonville Center
12:05PM 31.3992 -83.3917 347° North 162 186 8,000  Climbing Jacksonville Center
12:06PM 31.4453 -83.3992 352° North 163 188 7,900 -48 Descending Jacksonville Center
12:07PM 31.4911 -83.4092 349° North 169 194 7,900  Level Jacksonville Center
12:08PM 31.5369 -83.4192 349° North 169 194 7,900  Level Jacksonville Center
12:09PM 31.5808 -83.4242 354° North 159 183 7,900  Level Jacksonville Center
12:10PM 31.6267 -83.4367 347° North 159 183 7,900  Level Jacksonville Center
12:11PM 31.6706 -83.4442 352° North 159 183 7,900  Level Jacksonville Center
12:12PM 31.7164 -83.4519 352° North 159 183 7,900  Level Jacksonville Center
12:13PM 31.7561 -83.4594 351° North 159 183 7,900  Level Jacksonville Center
12:14PM 31.8019 -83.4694 349° North 159 183 7,900 -100 Level Jacksonville Center
12:15PM 31.8478 -83.4794 350° North 159 183 7,700 -306 Descending Jacksonville Center
12:17PM 31.9500 -83.5167 343° North 177 204 6,900 -429 Descending Atlanta TRACON
12:18PM 32.0000 -83.5333 344° North 182 209 6,300 -500 Descending Atlanta TRACON
12:19PM 32.0667 -83.5500 348° North 174 200 5,900 -149 Descending Atlanta TRACON
12:21PM 32.1000 -83.5500 360° North 163 188 6,000 50 Climbing Atlanta TRACON
12:21PM 32.1500 -83.5667 344° North 157 181 6,000 -100 Level Atlanta TRACON
12:23PM 32.2000 -83.5667 360° North 164 189 5,800 -446 Descending Atlanta TRACON
12:24PM 32.2333 -83.5667 360° North 177 204 5,100 -600 Descending Atlanta TRACON
12:25PM 32.2833 -83.5833 344° North 167 192 4,600 -500 Descending Atlanta TRACON
12:26PM 32.3333 -83.5833 360° North 169 194 4,100 -500 Descending Atlanta TRACON
12:27PM 32.3833 -83.5833 360° North 167 192 3,600 -500 Descending Atlanta TRACON
12:28PM 32.4333 -83.6000 344° North 165 190 3,100 -500 Descending Atlanta TRACON
12:29PM 32.4833 -83.6000 360° North 167 192 2,600 -450 Descending Atlanta TRACON
12:30PM 32.5167 -83.6000 360° North 166 191 2,200 -250 Descending Atlanta TRACON
12:31PM 32.5667 -83.6167 344° North 155 178 2,100 -100 Descending Atlanta TRACON
12:32PM 32.6000 -83.6333 337° Northwest 148 170 2,000 -200 Descending Atlanta TRACON
12:33PM 32.6333 -83.6333 360° North 143 165 1,700 -300 Descending Atlanta TRACON
12:34PM 32.6833 -83.6167 16° North 136 157 1,400 -350 Descending Atlanta TRACON
12:35PM 32.7000 -83.6167 360° North 108 124 1,000 -400 Descending Atlanta TRACON
12:36PM 32.7000 -83.6333 270° West 92 106 600 -400 Descending Atlanta TRACON
12:39PM 32.6833 -83.6333 North  Level FlightAware Approximate
12:46PM 32.6928 -83.6492 North  Level Estimated